DAUH

Oued Irara Airport

Hassi Messaoud, Algeria
METAR DAUH 190030Z 09005KT 8000 NSC 13/11 Q1010
Observed Flight Rules
Nov-19 @ 00:30 UTC (28 minutes ago) Marginal Visual Flight Rules
Wind Visibility Clouds
90° at 5 knots 7,998 meters
  • Clear skies
Temperatures Readings
Current 13°C / 55°F
Dewpoint 11°C / 52°F
Humidity 88%
Altimeter 29.82" Hg
Pressure 1010 hPa
Elevation 142
METAR DAUH 190030Z 09005KT 8000 NSC 13/11 Q1010
Observed Flight Rules
Nov-19 @ 00:30 UTC
(28 minutes ago)
MVFR
Wind Visibility
90° at 5 knots 7,998 meters
Clouds
  • Clear skies
Temperature Dewpoint
13°C / 55°F 11°C / 52°F
Humidity Altimeter Pressure
88% 29.82" Hg 1010 hPa